createdAt,value
2022-10-05T00:01:23.954Z,3.22
2022-10-05T00:04:16.342Z,2.70
2022-10-05T00:07:20.654Z,3.25
2022-10-05T00:10:16.478Z,3.17
2022-10-05T00:13:16.899Z,3.05
2022-10-05T00:16:10.648Z,3.13
2022-10-05T00:19:01.396Z,3.30
2022-10-05T00:21:51.220Z,3.03
2022-10-05T00:24:41.195Z,2.95
2022-10-05T00:27:34.461Z,3.00
2022-10-05T00:30:25.509Z,2.97
2022-10-05T00:33:14.832Z,3.00
2022-10-05T00:36:04.381Z,3.03
2022-10-05T00:38:54.754Z,3.05
2022-10-05T00:42:02.644Z,3.00
2022-10-05T00:45:13.372Z,3.05
2022-10-05T00:48:34.103Z,3.13
2022-10-05T00:51:32.254Z,3.10
2022-10-05T00:54:27.405Z,3.00
2022-10-05T00:57:35.228Z,3.05
2022-10-05T01:00:27.457Z,2.97
2022-10-05T01:03:43.835Z,3.13
2022-10-05T01:06:57.943Z,2.85
2022-10-05T01:10:19.600Z,3.10
2022-10-05T01:13:30.828Z,3.25
2022-10-05T01:16:48.900Z,3.25
2022-10-05T01:20:06.279Z,3.20
2022-10-05T01:23:15.628Z,3.22
2022-10-05T01:26:33.151Z,3.10
2022-10-05T01:29:47.438Z,3.25
2022-10-05T01:32:46.191Z,3.28
2022-10-05T01:35:53.617Z,3.22
2022-10-05T01:39:01.056Z,3.30
2022-10-05T01:42:10.597Z,3.30
2022-10-05T01:45:21.610Z,3.15
2022-10-05T01:48:30.563Z,3.38
2022-10-05T01:51:39.375Z,3.10
2022-10-05T01:54:52.918Z,3.03
2022-10-05T01:58:17.386Z,3.20
2022-10-05T02:01:40.481Z,3.10
2022-10-05T02:05:01.547Z,2.70
2022-10-05T02:08:09.333Z,3.22
2022-10-05T02:11:09.276Z,2.90
2022-10-05T02:14:08.418Z,2.92
2022-10-05T02:17:03.594Z,3.00
2022-10-05T02:20:00.265Z,2.90
2022-10-05T02:22:54.322Z,3.10
2022-10-05T02:25:47.999Z,3.17
2022-10-05T02:29:00.113Z,3.00
2022-10-05T02:32:13.995Z,2.88
2022-10-05T02:38:05.129Z,3.38
2022-10-05T02:41:06.637Z,2.72
2022-10-05T02:44:05.139Z,3.30
2022-10-05T02:47:13.995Z,3.08
2022-10-05T02:50:59.956Z,3.00
2022-10-05T02:54:06.081Z,3.00
2022-10-05T02:57:13.522Z,3.20
2022-10-05T03:00:07.263Z,3.05
2022-10-05T03:03:12.275Z,2.78
2022-10-05T03:06:04.998Z,3.00
2022-10-05T03:09:07.464Z,2.90
2022-10-05T03:12:26.009Z,2.90
2022-10-05T03:15:39.761Z,3.20
2022-10-05T03:18:45.085Z,3.00
2022-10-05T03:21:56.715Z,3.20
2022-10-05T03:24:59.994Z,2.70
2022-10-05T03:28:09.716Z,3.00
2022-10-05T03:31:07.762Z,3.20
2022-10-05T03:34:14.284Z,2.80
2022-10-05T03:37:18.958Z,2.92
2022-10-05T03:40:30.803Z,2.83
2022-10-05T03:43:53.752Z,3.17
2022-10-05T03:47:10.296Z,3.25
2022-10-05T03:50:18.684Z,2.95
2022-10-05T03:53:12.613Z,3.13
2022-10-05T03:56:21.350Z,2.88
2022-10-05T03:59:32.224Z,3.20
2022-10-05T04:02:32.496Z,2.67
2022-10-05T04:05:45.226Z,3.00
2022-10-05T04:08:41.246Z,2.65
2022-10-05T04:11:46.123Z,2.88
2022-10-05T04:14:48.550Z,2.88
2022-10-05T04:17:43.727Z,2.63
2022-10-05T04:20:54.579Z,3.05
2022-10-05T04:24:04.158Z,3.00
2022-10-05T04:27:05.003Z,3.15
2022-10-05T04:30:02.315Z,2.85
2022-10-05T04:32:56.475Z,2.88
2022-10-05T04:36:04.588Z,3.00
2022-10-05T04:39:22.328Z,3.10
2022-10-05T04:42:30.906Z,3.03
2022-10-05T04:45:26.441Z,3.20
2022-10-05T04:48:50.132Z,3.17
2022-10-05T04:52:07.075Z,3.35
2022-10-05T04:55:05.566Z,3.10
2022-10-05T04:58:21.658Z,3.10
2022-10-05T05:01:38.939Z,2.90
2022-10-05T05:04:35.915Z,2.95
2022-10-05T05:07:51.819Z,3.17
2022-10-05T05:11:22.407Z,3.25
2022-10-05T05:14:45.355Z,3.25
2022-10-05T05:17:44.064Z,3.17
2022-10-05T05:20:41.365Z,2.97
2022-10-05T05:23:54.491Z,3.05
2022-10-05T05:27:16.470Z,3.00
2022-10-05T05:30:37.163Z,3.05
2022-10-05T05:33:35.559Z,3.22
2022-10-05T05:36:24.957Z,3.65
2022-10-05T05:39:17.688Z,3.00
2022-10-05T05:42:25.209Z,3.15
2022-10-05T05:45:45.330Z,3.47
2022-10-05T05:48:47.691Z,3.20
2022-10-05T05:51:49.922Z,3.92
2022-10-05T05:55:08.566Z,3.63
2022-10-05T05:58:09.585Z,3.40
2022-10-05T06:01:20.322Z,3.65
2022-10-05T06:04:29.387Z,3.42
2022-10-05T06:07:30.191Z,3.67
2022-10-05T06:10:28.018Z,3.60
2022-10-05T06:13:34.919Z,3.75
2022-10-05T06:16:40.576Z,3.72
2022-10-05T06:19:33.795Z,3.33
2022-10-05T06:22:31.641Z,3.67
2022-10-05T06:25:36.416Z,3.90
2022-10-05T06:28:28.626Z,3.50
2022-10-05T06:34:51.523Z,3.53
2022-10-05T06:38:14.439Z,3.95
2022-10-05T06:41:24.394Z,3.60
2022-10-05T06:44:29.452Z,3.63
2022-10-05T06:47:51.855Z,3.42
2022-10-05T06:51:43.919Z,3.80
2022-10-05T06:54:47.420Z,4.00
2022-10-05T06:58:06.860Z,3.45
2022-10-05T07:01:19.499Z,3.42
2022-10-05T07:04:38.485Z,3.83
2022-10-05T07:07:57.011Z,3.90
2022-10-05T07:11:07.915Z,3.95
2022-10-05T07:14:19.217Z,3.33
2022-10-05T07:17:29.937Z,4.22
2022-10-05T07:20:31.939Z,3.72
2022-10-05T07:23:30.594Z,3.70
2022-10-05T07:27:03.709Z,3.78
2022-10-05T07:33:15.749Z,3.95
2022-10-05T07:36:36.419Z,3.55
2022-10-05T07:39:59.105Z,3.67
2022-10-05T07:43:00.955Z,3.90
2022-10-05T07:46:06.495Z,3.72
2022-10-05T07:49:04.425Z,4.07
2022-10-05T07:52:03.641Z,4.40
2022-10-05T07:55:08.247Z,3.70
2022-10-05T07:58:16.195Z,4.18
2022-10-05T08:01:33.089Z,3.88
2022-10-05T08:04:40.723Z,3.97
2022-10-05T08:07:35.203Z,3.90
2022-10-05T08:10:28.483Z,3.88
2022-10-05T08:13:30.625Z,3.60
2022-10-05T08:16:21.199Z,4.10
2022-10-05T08:19:26.484Z,4.07
2022-10-05T08:22:25.434Z,3.70
2022-10-05T08:25:39.787Z,4.00
2022-10-05T08:29:01.309Z,4.10
2022-10-05T08:32:13.262Z,3.88
2022-10-05T08:35:41.409Z,4.60
2022-10-05T08:38:34.958Z,3.90
2022-10-05T08:41:47.584Z,3.97
2022-10-05T08:45:10.057Z,4.20
2022-10-05T08:48:02.533Z,4.32
2022-10-05T08:51:25.940Z,3.72
2022-10-05T08:54:49.172Z,4.38
2022-10-05T09:00:49.990Z,3.83
2022-10-05T09:04:07.249Z,4.03
2022-10-05T09:07:23.289Z,4.10
2022-10-05T09:10:27.350Z,3.88
2022-10-05T09:13:16.831Z,4.35
2022-10-05T09:16:42.149Z,3.95
2022-10-05T09:19:55.163Z,4.18
2022-10-05T09:23:16.484Z,4.28
2022-10-05T09:26:30.619Z,4.00
2022-10-05T09:29:38.434Z,4.40
2022-10-05T09:32:45.885Z,4.50
2022-10-05T09:35:53.259Z,4.35
2022-10-05T09:39:14.557Z,4.80
2022-10-05T09:42:35.754Z,4.13
2022-10-05T09:45:59.234Z,4.55
2022-10-05T09:49:16.447Z,4.55
2022-10-05T09:52:32.745Z,4.70
2022-10-05T09:55:55.618Z,4.53
2022-10-05T09:59:24.652Z,4.25
2022-10-05T10:02:25.259Z,4.57
2022-10-05T10:05:27.003Z,4.60
2022-10-05T10:08:37.838Z,4.55
2022-10-05T10:11:56.215Z,4.32
2022-10-05T10:15:14.583Z,4.10
2022-10-05T10:18:33.531Z,3.80
2022-10-05T10:21:38.341Z,4.30
2022-10-05T10:24:45.559Z,4.90
2022-10-05T10:28:14.173Z,4.20
2022-10-05T10:31:19.057Z,4.55
2022-10-05T10:34:49.751Z,4.43
2022-10-05T10:37:54.212Z,4.18
2022-10-05T10:40:54.330Z,4.63
2022-10-05T10:44:07.276Z,4.75
2022-10-05T10:47:17.834Z,4.07
2022-10-05T10:50:51.675Z,4.10
2022-10-05T10:54:16.085Z,3.90
2022-10-05T10:57:12.081Z,4.07
2022-10-05T11:00:28.018Z,4.70
2022-10-05T11:03:23.441Z,4.60
2022-10-05T11:06:32.355Z,4.50
2022-10-05T11:09:49.160Z,4.38
2022-10-05T11:12:59.495Z,4.30
2022-10-05T11:16:08.490Z,3.97
2022-10-05T11:19:40.711Z,4.25
2022-10-05T11:23:15.574Z,4.45
2022-10-05T11:26:26.166Z,4.60
2022-10-05T11:30:14.643Z,4.45
2022-10-05T11:33:58.047Z,3.67
2022-10-05T11:36:50.330Z,4.22
2022-10-05T11:40:16.628Z,3.95
2022-10-05T11:43:11.560Z,3.90
2022-10-05T11:46:14.321Z,4.47
2022-10-05T11:49:19.711Z,4.07
2022-10-05T11:52:24.295Z,3.97
2022-10-05T11:55:38.755Z,4.20
2022-10-05T11:58:42.262Z,4.13
2022-10-05T12:01:46.119Z,3.90
2022-10-05T12:05:03.847Z,4.18
2022-10-05T12:08:11.829Z,4.53
2022-10-05T12:11:10.519Z,4.43
2022-10-05T12:14:08.897Z,3.47
2022-10-05T12:17:06.737Z,4.00
2022-10-05T12:20:13.980Z,3.67
2022-10-05T12:23:09.527Z,4.10
2022-10-05T12:26:02.650Z,3.47
2022-10-05T12:28:57.628Z,3.85
2022-10-05T12:31:53.843Z,4.07
2022-10-05T12:35:43.559Z,3.75
2022-10-05T12:38:45.337Z,3.97
2022-10-05T12:41:43.051Z,4.28
2022-10-05T12:44:56.395Z,3.63
2022-10-05T12:48:03.277Z,4.20
2022-10-05T12:51:02.619Z,4.07
2022-10-05T12:54:32.272Z,3.97
2022-10-05T12:57:31.083Z,3.80
2022-10-05T13:00:23.246Z,4.10
2022-10-05T13:03:26.639Z,3.88
2022-10-05T13:06:40.813Z,4.15
2022-10-05T13:09:35.694Z,3.97
2022-10-05T13:12:41.837Z,4.38
2022-10-05T13:15:46.069Z,4.15
2022-10-05T13:18:38.041Z,4.00
2022-10-05T13:21:51.168Z,4.20
2022-10-05T13:27:59.617Z,4.10
2022-10-05T13:31:26.676Z,4.07
2022-10-05T13:34:30.483Z,3.95
2022-10-05T13:37:28.999Z,4.13
2022-10-05T13:40:31.476Z,4.63
2022-10-05T13:43:44.998Z,4.25
2022-10-05T13:46:44.031Z,3.88
2022-10-05T13:49:50.997Z,3.65
2022-10-05T13:53:04.869Z,4.40
2022-10-05T13:56:19.734Z,4.15
2022-10-05T13:59:29.135Z,3.85
2022-10-05T14:02:39.235Z,4.00
2022-10-05T14:05:31.523Z,4.72
2022-10-05T14:08:21.140Z,5.18
2022-10-05T14:11:27.616Z,4.38
2022-10-05T14:14:26.400Z,3.90
2022-10-05T14:17:38.316Z,3.85
2022-10-05T14:20:35.387Z,4.07
2022-10-05T14:23:28.375Z,4.35
2022-10-05T14:26:39.054Z,4.40
2022-10-05T14:29:37.738Z,3.80
2022-10-05T14:32:31.488Z,4.25
2022-10-05T14:35:23.243Z,3.80
2022-10-05T14:38:31.437Z,4.00
2022-10-05T14:41:23.284Z,4.70
2022-10-05T14:44:15.768Z,3.80
2022-10-05T14:47:24.018Z,4.20
2022-10-05T14:50:26.555Z,3.80
2022-10-05T14:53:18.996Z,3.97
2022-10-05T14:56:15.412Z,4.15
2022-10-05T14:59:42.411Z,4.72
2022-10-05T15:02:45.997Z,4.45
2022-10-05T15:05:40.729Z,4.03
2022-10-05T15:08:42.562Z,3.63
2022-10-05T15:11:52.647Z,4.13
2022-10-05T15:14:46.009Z,4.32
2022-10-05T15:17:53.689Z,3.85
2022-10-05T15:20:58.644Z,4.10
2022-10-05T15:23:55.484Z,4.60
2022-10-05T15:27:00.686Z,3.90
2022-10-05T15:30:13.885Z,4.00
2022-10-05T15:33:47.436Z,4.15
2022-10-05T15:37:09.884Z,4.30
2022-10-05T15:40:08.913Z,4.20
2022-10-05T15:43:05.484Z,4.10
2022-10-05T15:46:19.339Z,4.03
2022-10-05T15:49:27.113Z,3.50
2022-10-05T15:52:18.643Z,4.00
2022-10-05T15:55:28.374Z,3.60
2022-10-05T15:58:44.878Z,3.97
2022-10-05T16:01:34.333Z,4.28
2022-10-05T16:04:53.544Z,4.03
2022-10-05T16:08:11.865Z,4.07
2022-10-05T16:11:02.399Z,3.92
2022-10-05T16:14:31.219Z,3.97
2022-10-05T16:17:42.833Z,3.88
2022-10-05T16:20:52.709Z,3.97
2022-10-05T16:23:59.946Z,3.70
2022-10-05T16:27:00.779Z,3.50
2022-10-05T16:30:03.322Z,3.65
2022-10-05T16:33:22.384Z,3.63
2022-10-05T16:36:23.660Z,3.55
2022-10-05T16:40:03.195Z,3.90
2022-10-05T16:43:21.495Z,3.75
2022-10-05T16:46:27.432Z,4.22
2022-10-05T16:49:36.627Z,4.05
2022-10-05T16:52:28.997Z,3.63
2022-10-05T16:55:31.298Z,3.72
2022-10-05T16:58:41.674Z,3.70
2022-10-05T17:01:50.418Z,4.05
2022-10-05T17:04:42.838Z,3.88
2022-10-05T17:07:57.942Z,4.03
2022-10-05T17:11:20.131Z,3.92
2022-10-05T17:14:38.215Z,3.97
2022-10-05T17:17:50.978Z,3.88
2022-10-05T17:20:50.295Z,4.15
2022-10-05T17:24:00.434Z,3.97
2022-10-05T17:27:00.435Z,3.72
2022-10-05T17:29:55.154Z,4.00
2022-10-05T17:33:14.967Z,3.90
2022-10-05T17:36:05.835Z,4.20
2022-10-05T17:39:17.515Z,3.95
2022-10-05T17:42:31.080Z,4.05
2022-10-05T17:45:20.601Z,3.90
2022-10-05T17:48:42.156Z,4.05
2022-10-05T17:51:49.722Z,3.60
2022-10-05T17:55:06.596Z,4.00
2022-10-05T17:57:59.908Z,3.75
2022-10-05T18:01:01.821Z,3.80
2022-10-05T18:03:52.637Z,3.80
2022-10-05T18:06:56.377Z,3.70
2022-10-05T18:09:59.913Z,4.15
2022-10-05T18:13:22.502Z,4.43
2022-10-05T18:16:12.369Z,3.70
2022-10-05T18:19:02.761Z,4.13
2022-10-05T18:22:18.817Z,4.07
2022-10-05T18:25:11.596Z,3.78
2022-10-05T18:31:18.637Z,3.72
2022-10-05T18:34:27.355Z,3.55
2022-10-05T18:37:48.333Z,4.18
2022-10-05T18:41:10.297Z,4.10
2022-10-05T18:43:59.740Z,3.70
2022-10-05T18:47:44.538Z,3.95
2022-10-05T18:50:54.676Z,3.90
2022-10-05T18:53:55.075Z,4.18
2022-10-05T18:56:54.761Z,3.85
2022-10-05T18:59:59.495Z,3.95
2022-10-05T19:03:02.918Z,4.18
2022-10-05T19:06:12.844Z,3.67
2022-10-05T19:09:09.015Z,3.70
2022-10-05T19:12:40.605Z,3.90
2022-10-05T19:15:45.374Z,3.80
2022-10-05T19:19:08.530Z,3.85
2022-10-05T19:22:29.178Z,4.00
2022-10-05T19:25:25.889Z,3.90
2022-10-05T19:28:38.740Z,3.25
2022-10-05T19:31:54.056Z,3.72
2022-10-05T19:34:58.484Z,4.13
2022-10-05T19:38:15.528Z,3.90
2022-10-05T19:41:20.121Z,3.70
2022-10-05T19:44:32.268Z,3.85
2022-10-05T19:47:47.776Z,3.75
2022-10-05T19:50:39.514Z,3.90
2022-10-05T19:53:34.608Z,3.70
2022-10-05T19:56:50.837Z,3.65
2022-10-05T19:59:46.330Z,3.75
2022-10-05T20:02:39.922Z,3.75
2022-10-05T20:05:31.421Z,3.78
2022-10-05T20:08:24.214Z,3.60
2022-10-05T20:11:21.916Z,3.65
2022-10-05T20:14:13.964Z,3.60
2022-10-05T20:17:45.963Z,4.10
2022-10-05T20:20:48.460Z,3.80
2022-10-05T20:23:39.389Z,3.90
2022-10-05T20:27:03.519Z,3.60
2022-10-05T20:29:53.038Z,3.63
2022-10-05T20:32:43.156Z,3.63
2022-10-05T20:35:32.677Z,3.72
2022-10-05T20:38:23.301Z,3.83
2022-10-05T20:41:17.636Z,3.67
2022-10-05T20:44:06.953Z,3.90
2022-10-05T20:47:02.820Z,3.58
2022-10-05T20:49:54.648Z,3.80
2022-10-05T20:52:44.151Z,4.20
2022-10-05T20:55:35.210Z,4.05
2022-10-05T20:58:25.138Z,4.30
2022-10-05T21:01:19.434Z,3.85
2022-10-05T21:04:10.683Z,3.78
2022-10-05T21:07:02.152Z,3.63
2022-10-05T21:09:52.731Z,3.97
2022-10-05T21:12:43.218Z,3.80
2022-10-05T21:15:33.795Z,3.90
2022-10-05T21:18:23.399Z,3.65
2022-10-05T21:21:13.502Z,4.10
2022-10-05T21:24:03.029Z,3.80
2022-10-05T21:26:54.703Z,3.92
2022-10-05T21:29:45.245Z,4.00
2022-10-05T21:32:34.811Z,3.88
2022-10-05T21:35:24.196Z,3.85
2022-10-05T21:38:13.755Z,4.00
2022-10-05T21:41:03.238Z,3.80
2022-10-05T21:43:52.898Z,4.28
2022-10-05T21:46:43.009Z,4.15
2022-10-05T21:49:32.730Z,3.70
2022-10-05T21:52:22.829Z,4.18
2022-10-05T21:55:12.837Z,3.80
2022-10-05T21:58:03.035Z,3.40
2022-10-05T22:00:52.406Z,3.60
2022-10-05T22:03:42.191Z,3.58
2022-10-05T22:06:32.117Z,3.97
2022-10-05T22:09:21.718Z,3.97
2022-10-05T22:12:11.458Z,3.90
2022-10-05T22:15:01.745Z,3.63
2022-10-05T22:17:51.798Z,3.80
2022-10-05T22:20:41.161Z,3.58
2022-10-05T22:23:30.601Z,3.80
2022-10-05T22:26:22.815Z,3.60
2022-10-05T22:29:12.357Z,3.80
2022-10-05T22:32:01.950Z,3.67
2022-10-05T22:34:51.904Z,3.92
2022-10-05T22:37:41.434Z,3.60
2022-10-05T22:40:31.397Z,3.50
2022-10-05T22:43:20.841Z,4.10
2022-10-05T22:46:12.327Z,3.50
2022-10-05T22:49:01.769Z,3.50
2022-10-05T22:51:51.159Z,3.42
2022-10-05T22:54:40.558Z,3.88
2022-10-05T22:57:29.944Z,3.80
2022-10-05T23:00:20.553Z,3.65
2022-10-05T23:06:06.701Z,3.72
2022-10-05T23:08:56.386Z,3.97
2022-10-05T23:11:47.675Z,3.60
2022-10-05T23:14:37.156Z,3.65
2022-10-05T23:17:28.196Z,3.95
2022-10-05T23:20:17.665Z,3.78
2022-10-05T23:23:07.152Z,3.75
2022-10-05T23:26:03.715Z,3.83
2022-10-05T23:28:53.655Z,3.70
2022-10-05T23:31:43.209Z,3.58
2022-10-05T23:34:32.598Z,3.95
2022-10-05T23:37:23.857Z,3.45
2022-10-05T23:40:15.507Z,3.40
2022-10-05T23:43:04.937Z,3.70
2022-10-05T23:45:54.819Z,3.50
2022-10-05T23:48:44.361Z,3.80
2022-10-05T23:51:34.515Z,3.47
2022-10-05T23:54:24.055Z,3.72
2022-10-05T23:57:18.922Z,3.70
